• Join FlightAware (Why Join?)
  • Login
  • US Flag 
07:40PM EDT


 

Airport Tracker/Info


-or-


 

Live Flight TrackerFlight Track Log ✈ N244A ✈ 08-Jul-2013 ✈ KSLN - KTRM

Flight Track Log - Related Links

Times and Time Zones

All times are in EDT time to prevent confusion due to time zone crossing. See the N244A flight status page for this flight to view local times or setup timezone preferences in your user account.

Time Position Orientation Groundspeed Altitude Reporting Facility
EDT Latitude Longitude Course Direction KTS MPH feet Rate Location/Type
01:38PM 38.7808 -97.6461 154° Southeast 184 212 2,000  Level Kansas City Center
01:39PM 38.7550 -97.6922 234° Southwest 226 260 4,300 2,580 Climbing Kansas City Center
01:40PM 38.8036 -97.7553 315° West 256 295 7,400 2,460 Climbing Kansas City Center
01:41PM 38.7917 -97.8428 260° West 274 315 9,400 1,920 Climbing Kansas City Center
01:42PM 38.7592 -97.9447 248° West 307 353 11,400 1,980 Climbing Kansas City Center
01:43PM 38.7214 -98.0547 246° West 334 384 13,500 2,160 Climbing Kansas City Center
01:44PM 38.6833 -98.1969 251° West 352 405 15,900 2,100 Climbing Kansas City Center
01:45PM 38.6494 -98.3219 251° West 369 425 17,900 1,740 Climbing Kansas City Center
01:46PM 38.6119 -98.4450 249° West 373 429 19,500 1,500 Climbing Kansas City Center
01:47PM 38.5742 -98.5758 250° West 390 449 21,000 1,500 Climbing Kansas City Center
01:48PM 38.5358 -98.7081 250° West 398 458 22,600 1,320 Climbing Kansas City Center
01:49PM 38.4886 -98.8703 250° West 407 468 23,800 1,020 Climbing Kansas City Center
01:50PM 38.4464 -99.0081 249° West 414 476 24,800 840 Climbing Kansas City Center
01:51PM 38.4042 -99.1517 249° West 429 494 25,600 780 Climbing Kansas City Center
01:52PM 38.3606 -99.2958 249° West 435 501 26,500 840 Climbing Kansas City Center
01:54PM 38.3156 -99.4397 248° West 438 504 27,400 900 Climbing Kansas City Center
01:55PM 38.2661 -99.6033 249° West 438 504 28,400 840 Climbing Kansas City Center
01:56PM 38.2236 -99.7419 249° West 438 504 29,200 840 Climbing Kansas City Center
01:57PM 38.1744 -99.9028 249° West 438 504 30,200 840 Climbing Kansas City Center
01:58PM 38.1281 -100.0386 247° West 438 504 31,000 840 Climbing Kansas City Center
01:59PM 38.0811 -100.1994 250° West 435 501 32,000 900 Climbing Kansas City Center
02:00PM 38.0303 -100.3586 248° West 437 503 33,000 780 Climbing Kansas City Center
02:01PM 37.9875 -100.4931 248° West 434 499 33,700 480 Climbing Kansas City Center
02:02PM 37.9378 -100.6528 249° West 435 501 34,000 180 Climbing Kansas City Center
02:03PM 37.8933 -100.7928 248° West 446 513 34,100 480 Climbing Kansas City Center
02:04PM 37.8425 -100.9569 249° West 453 521 35,000 660 Climbing Kansas City Center
02:05PM 37.7953 -101.0933 246° West 452 520 35,500 600 Climbing Kansas City Center
02:06PM 37.7433 -101.2517 248° West 443 510 36,300 660 Climbing Kansas City Center
02:07PM 37.6986 -101.3881 248° West 442 509 36,900 300 Climbing Kansas City Center
02:08PM 37.6464 -101.5469 247° West 440 506 37,000 240 Climbing Kansas City Center
02:09PM 37.6019 -101.6847 248° West 443 510 37,400 420 Climbing Kansas City Center
02:10PM 37.5489 -101.8442 247° West 443 510 37,900 240 Climbing Kansas City Center
02:11PM 37.5033 -101.9811 247° West 443 510 38,000  Climbing Kansas City Center
02:12PM 37.4494 -102.1431 247° West 447 514 38,000  Level Kansas City Center
02:13PM 37.4031 -102.2817 247° West 450 518 38,000  Level Kansas City Center
02:14PM 37.3469 -102.4442 247° West 453 521 38,000  Level Kansas City Center
02:15PM 37.3003 -102.5814 247° West 449 517 38,000  Level Kansas City Center
02:16PM 37.2458 -102.7428 247° West 449 517 38,000  Level Kansas City Center
02:17PM 37.1986 -102.8789 246° West 447 514 38,000  Level Kansas City Center
02:18PM 37.1514 -103.0161 247° West 447 514 38,000  Level Kansas City Center
02:20PM 37.0789 -103.2283 247° West 446 513 38,000  Level Albuquerque Center
02:21PM 37.0314 -103.3644 246° West 445 512 38,000  Level Albuquerque Center
02:22PM 36.9831 -103.5022 246° West 448 516 38,000  Level Albuquerque Center
02:23PM 36.9267 -103.6617 246° West 448 516 38,000  Level Albuquerque Center
02:24PM 36.8778 -103.7992 246° West 449 517 38,000  Level Albuquerque Center
02:25PM 36.8228 -103.9592 247° West 448 516 38,000  Level Albuquerque Center
02:26PM 36.7725 -104.0950 245° Southwest 449 517 38,000  Level Albuquerque Center
02:27PM 36.7167 -104.2542 246° West 448 516 38,000  Level Albuquerque Center
02:28PM 36.6644 -104.3972 246° West 448 516 38,000  Level Albuquerque Center
02:29PM 36.6128 -104.5386 246° West 447 514 38,000  Level Albuquerque Center
02:30PM 36.5614 -104.6803 246° West 447 514 38,000  Level Albuquerque Center
02:31PM 36.5308 -104.8286 256° West 442 509 38,000  Level Albuquerque Center
02:32PM 36.5233 -104.9822 267° West 441 507 38,000  Level Albuquerque Center
02:33PM 36.5231 -105.1342 270° West 438 504 38,000  Level Albuquerque Center
02:34PM 36.5172 -105.3100 268° West 440 506 38,000  Level Albuquerque Center
02:35PM 36.4839 -105.4519 254° West 448 516 38,000  Level Albuquerque Center
02:36PM 36.4500 -105.5911 253° West 446 513 38,000  Level Albuquerque Center
02:37PM 36.4181 -105.7400 255° West 447 514 38,000  Level Albuquerque Center
02:38PM 36.3850 -105.8878 255° West 445 512 38,000  Level Albuquerque Center
02:39PM 36.3456 -106.0650 255° West 444 511 38,000  Level Albuquerque Center
02:40PM 36.3119 -106.2200 255° West 446 513 38,000  Level Albuquerque Center
02:41PM 36.2783 -106.3608 254° West 445 512 38,000  Level Albuquerque Center
02:42PM 36.2428 -106.5258 255° West 444 511 38,000  Level Albuquerque Center
02:43PM 36.2092 -106.6669 254° West 445 512 38,000  Level Albuquerque Center
02:44PM 36.1775 -106.8000 254° West 445 512 38,000  Level Albuquerque Center
02:45PM 36.1453 -106.9458 255° West 443 510 38,000  Level Albuquerque Center
02:47PM 36.1042 -107.1200 254° West 442 509 38,000  Level Albuquerque Center
02:48PM 36.0678 -107.2719 254° West 439 505 38,000  Level Albuquerque Center
02:49PM 36.0358 -107.4119 254° West 440 506 38,000  Level Albuquerque Center
02:50PM 35.9961 -107.5725 253° West 439 505 38,000  Level Albuquerque Center
02:51PM 35.9636 -107.7108 254° West 438 504 38,000  Level Albuquerque Center
02:52PM 35.9294 -107.8483 253° West 438 504 38,000  Level Albuquerque Center
02:53PM 35.8919 -108.0089 254° West 437 503 38,000  Level Albuquerque Center
02:54PM 35.8567 -108.1478 253° West 439 505 38,000  Level Albuquerque Center
02:55PM 35.8169 -108.3089 253° West 439 505 38,000  Level Albuquerque Center
02:56PM 35.7836 -108.4456 253° West 435 501 38,000  Level Albuquerque Center
02:57PM 35.7481 -108.5825 252° West 436 502 38,000  Level Albuquerque Center
02:58PM 35.7086 -108.7439 253° West 436 502 38,000  Level Albuquerque Center
02:59PM 35.6736 -108.8811 253° West 435 501 38,000  Level Albuquerque Center
03:00PM 35.6328 -109.0419 253° West 438 504 38,000  Level Albuquerque Center
03:01PM 35.5994 -109.1786 253° West 436 502 38,000  Level Albuquerque Center
03:02PM 35.5642 -109.3133 252° West 434 499 38,000  Level Albuquerque Center
03:03PM 35.5244 -109.4742 253° West 437 503 38,000  Level Albuquerque Center
03:04PM 35.4886 -109.6108 252° West 439 505 38,000  Level Albuquerque Center
03:05PM 35.4469 -109.7689 252° West 437 503 38,000  Level Albuquerque Center
03:06PM 35.4119 -109.9042 252° West 436 502 38,000  Level Albuquerque Center
03:07PM 35.3686 -110.0625 251° West 437 503 38,000  Level Albuquerque Center
03:08PM 35.3317 -110.1972 251° West 437 503 38,000  Level Albuquerque Center
03:09PM 35.2972 -110.3342 253° West 439 505 38,000  Level Albuquerque Center
03:10PM 35.2539 -110.4911 251° West 437 503 38,000  Level Albuquerque Center
03:11PM 35.2156 -110.6267 251° West 439 505 38,000  Level Albuquerque Center
03:12PM 35.1739 -110.7856 252° West 439 505 38,000  Level Albuquerque Center
03:13PM 35.1358 -110.9206 251° West 441 507 38,000  Level Albuquerque Center
03:14PM 35.0931 -111.0806 252° West 442 509 38,000  Level Albuquerque Center
03:15PM 35.0572 -111.2164 252° West 452 520 38,000  Level Albuquerque Center
03:16PM 35.0181 -111.3583 251° West 447 514 38,000  Level Albuquerque Center
03:17PM 34.9794 -111.4989 252° West 442 509 38,000  Level Albuquerque Center
03:18PM 34.9306 -111.6681 251° West 442 509 38,000  Level Albuquerque Center
03:19PM 34.8969 -111.7944 252° West 444 511 38,000  Level Albuquerque Center
03:20PM 34.8569 -111.9350 251° West 442 509 38,000  Level Albuquerque Center
03:21PM 34.8089 -112.1047 251° West 442 509 38,000  Level Albuquerque Center
03:23PM 34.7686 -112.2453 251° West 443 510 38,000  Level Albuquerque Center
03:24PM 34.7272 -112.3861 250° West 443 510 38,000  Level Albuquerque Center
03:25PM 34.6881 -112.5278 251° West 443 510 38,000  Level Albuquerque Center
03:26PM 34.6517 -112.6706 253° West 443 510 38,000  Level Albuquerque Center
03:27PM 34.6139 -112.8122 252° West 443 510 38,000  Level Albuquerque Center
03:28PM 34.5750 -112.9536 252° West 443 510 38,000 -60 Level Albuquerque Center
03:29PM 34.5139 -113.1822 252° West 447 514 37,900 -840 Descending Los Angeles Center
03:30PM 34.4675 -113.3572 252° West 455 524 35,800 -1,980 Descending Los Angeles Center
03:31PM 34.4294 -113.5022 252° West 456 525 33,800 -1,920 Descending Los Angeles Center
03:32PM 34.3886 -113.6497 251° West 462 532 31,900 -1,860 Descending Los Angeles Center
03:33PM 34.3469 -113.8103 253° West 461 531 30,000 -1,020 Descending Los Angeles Center
03:34PM 34.3186 -113.9608 257° West 460 529 29,900 -60 Descending Los Angeles Center
03:35PM 34.2847 -114.1103 255° West 461 531 29,900 -720 Level Los Angeles Center
03:37PM 34.2511 -114.2592 255° West 461 531 28,500 -1,920 Descending Los Angeles Center
03:38PM 34.2125 -114.4444 256° West 475 547 26,000 -2,400 Descending Los Angeles Center
03:39PM 34.1775 -114.6000 255° West 482 555 23,600 -2,280 Descending Los Angeles Center
03:40PM 34.1350 -114.7806 254° West 470 541 20,800 -1,620 Descending Los Angeles Center
03:41PM 34.1031 -114.9328 256° West 471 542 20,000 -480 Descending Los Angeles Center
03:42PM 34.0706 -115.0725 254° West 444 511 19,900 -660 Descending Los Angeles Center
03:43PM 34.0314 -115.2400 254° West 434 499 18,700 -2,160 Descending Los Angeles Center
03:44PM 34.0008 -115.3850 256° West 445 512 15,500 -2,880 Descending Los Angeles Center
03:45PM 33.9708 -115.5133 254° West 412 474 12,800 -2,520 Descending Los Angeles Center
03:46PM 33.9414 -115.6325 253° West 387 445 10,300 -1,440 Descending Los Angeles Center
03:47PM 33.9153 -115.7450 254° West 369 425 9,900 -240 Descending Los Angeles Center
03:48PM 33.9078 -115.8561 265° West 351 404 9,900 -240 Level Los Angeles Center
03:49PM 33.8753 -115.9656 250° West 320 368 9,500 -1,080 Descending Los Angeles Center
03:50PM 33.8117 -116.0181 214° Southwest 292 336 7,700 -1,260 Descending Los Angeles Center
03:51PM 33.7494 -116.0650 212° Southwest 290 334 6,900 -780 Descending Los Angeles Center